Time;durP1;ratioP1;P1;durP2;ratioP2;P2;SDS_P1;SDS_P2;PMS_P1;PMS_P2;Temp;Humidity;BMP_temperature;BMP_pressure;BME280_temperature;BME280_humidity;BME280_pressure;Samples;Min_cycle;Max_cycle;Signal;HPM_P1;HPM_P2
2023/05/06 00:10:29;;;;;;;;;9.25;5.75;;;;;9.45;74.56;98635.22;4960225;28;102900;-76
2023/05/06 00:13:18;;;;;;;;;4.00;3.75;;;;;9.41;74.51;98630.19;4956481;28;101722;-74
2023/05/06 00:16:02;;;;;;;;;5.25;5.25;;;;;9.32;74.52;98625.94;4960783;28;102376;-76
2023/05/06 00:18:48;;;;;;;;;9.00;9.00;;;;;9.27;75.16;98620.31;4958033;28;101897;-76
2023/05/06 00:21:33;;;;;;;;;5.00;4.00;;;;;9.20;77.81;98618.53;4966875;28;101707;-76
2023/05/06 00:24:07;;;;;;;;;5.75;5.00;;;;;9.14;76.47;98613.94;4967268;28;101916;-75
2023/05/06 00:26:34;;;;;;;;;5.00;5.00;;;;;9.12;76.03;98602.50;4965865;28;103332;-76
2023/05/06 00:29:01;;;;;;;;;4.00;3.75;;;;;9.14;76.25;98611.25;4970632;28;101804;-77
2023/05/06 00:31:28;;;;;;;;;5.75;4.75;;;;;9.11;76.74;98598.97;4966183;28;102389;-74
2023/05/06 00:33:55;;;;;;;;;4.50;4.50;;;;;9.07;77.46;98608.47;4967054;28;101871;-76
2023/05/06 00:36:22;;;;;;;;;4.25;4.25;;;;;9.01;76.44;98601.13;4963088;28;103107;-76
2023/05/06 00:38:49;;;;;;;;;4.00;4.00;;;;;9.00;77.95;98599.47;4963988;28;101496;-76
2023/05/06 00:41:16;;;;;;;;;4.75;4.50;;;;;8.99;77.45;98600.50;4963313;28;101900;-77
2023/05/06 00:43:43;;;;;;;;;4.00;3.50;;;;;8.81;77.44;98579.34;4970991;28;101942;-76
2023/05/06 00:46:13;;;;;;;;;5.50;4.75;;;;;8.87;78.74;98602.84;4963950;28;103386;-75
2023/05/06 00:48:42;;;;;;;;;5.00;5.00;;;;;8.87;77.04;98597.44;4964161;28;101635;-76
2023/05/06 00:51:10;;;;;;;;;4.00;3.00;;;;;8.79;77.26;98584.09;4966760;28;103865;-76
2023/05/06 00:53:38;;;;;;;;;6.00;5.75;;;;;8.75;79.18;98593.59;4965856;28;101863;-75
2023/05/06 00:56:06;;;;;;;;;6.25;5.75;;;;;8.77;79.39;98593.41;4963974;28;103388;-75
2023/05/06 00:58:34;;;;;;;;;6.50;5.00;;;;;8.78;79.16;98593.19;4962969;28;106046;-76
2023/05/06 01:01:01;;;;;;;;;4.75;4.50;;;;;8.78;78.69;98589.69;4969471;28;102098;-76
2023/05/06 01:03:29;;;;;;;;;3.00;3.00;;;;;8.77;79.50;98588.84;4968760;28;101766;-77
2023/05/06 01:06:24;;;;;;;;;4.00;3.00;;;;;8.83;78.23;98589.94;4966312;28;103604;-76
2023/05/06 01:09:35;;;;;;;;;2.50;2.50;;;;;8.83;78.71;98589.94;4965461;28;101871;-76
2023/05/06 01:12:56;;;;;;;;;3.25;3.00;;;;;8.79;79.06;98591.34;4964191;28;101931;-76
2023/05/06 01:15:57;;;;;;;;;9.75;7.00;;;;;8.69;79.59;98599.72;4961435;28;101782;-76
2023/05/06 01:18:42;;;;;;;;;4.75;4.75;;;;;8.70;79.47;98604.09;4966176;28;108527;-76
2023/05/06 01:21:12;;;;;;;;;3.75;3.50;;;;;8.69;79.78;98605.09;4963503;28;101870;-76
2023/05/06 01:23:56;;;;;;;;;6.25;5.50;;;;;8.59;79.49;98583.03;4966828;28;101918;-76
2023/05/06 01:26:24;;;;;;;;;5.00;5.00;;;;;8.64;79.66;98601.34;4966710;28;102154;-76
2023/05/06 01:28:52;;;;;;;;;4.75;4.25;;;;;8.59;80.63;98593.81;4968698;28;103337;-76
2023/05/06 01:31:28;;;;;;;;;4.00;4.00;;;;;8.58;79.91;98600.22;4961650;28;102003;-77
2023/05/06 01:33:59;;;;;;;;;8.25;7.75;;;;;8.51;81.14;98599.28;4964713;28;101653;-76
2023/05/06 01:36:52;;;;;;;;;8.00;4.75;;;;;8.54;79.96;98598.09;4969178;28;101899;-77
2023/05/06 01:39:25;;;;;;;;;5.25;4.75;;;;;8.49;80.75;98594.09;4967781;28;107863;-77
2023/05/06 01:41:56;;;;;;;;;7.75;5.75;;;;;8.49;80.67;98598.66;4962559;28;101785;-76
2023/05/06 01:44:26;;;;;;;;;5.25;4.75;;;;;8.46;81.55;98593.66;4968536;28;102074;-74
2023/05/06 01:46:55;;;;;;;;;4.75;4.00;;;;;8.23;81.67;98544.41;4970077;28;101774;-75
2023/05/06 01:49:24;;;;;;;;;4.50;4.50;;;;;8.44;81.91;98595.69;4963796;28;103524;-76
2023/05/06 01:51:52;;;;;;;;;8.50;8.50;;;;;8.40;81.77;98600.63;4967115;28;101756;-76
2023/05/06 01:54:19;;;;;;;;;5.00;4.50;;;;;8.45;82.03;98591.97;4961902;28;103456;-75
2023/05/06 01:56:46;;;;;;;;;4.75;4.75;;;;;8.43;81.16;98585.91;4968953;28;102168;-74
2023/05/06 01:59:13;;;;;;;;;4.25;4.00;;;;;8.47;82.27;98584.53;4963936;28;103418;-75
2023/05/06 02:01:40;;;;;;;;;9.25;6.25;;;;;8.42;83.10;98592.34;4962499;28;102131;-75
2023/05/06 02:04:07;;;;;;;;;5.50;5.00;;;;;8.41;81.95;98588.81;4961350;28;102038;-76
2023/05/06 02:06:34;;;;;;;;;9.50;8.50;;;;;8.39;81.62;98580.06;4971135;28;103793;-71
2023/05/06 02:09:01;;;;;;;;;8.25;7.75;;;;;8.43;81.97;98575.16;4968995;28;103332;-76
2023/05/06 02:11:28;;;;;;;;;12.00;11.50;;;;;7.97;83.13;98508.00;4961625;28;101725;-75
2023/05/06 02:13:55;;;;;;;;;8.00;7.50;;;;;8.32;82.83;98575.63;4952489;28;101539;-75
2023/05/06 02:16:22;;;;;;;;;10.50;8.75;;;;;8.35;83.35;98569.88;4966400;28;101776;-76
2023/05/06 02:18:49;;;;;;;;;13.75;11.00;;;;;8.35;82.18;98570.72;4962625;28;108056;-76
2023/05/06 02:21:16;;;;;;;;;10.00;9.00;;;;;8.33;82.54;98555.78;4964611;28;102033;-76
2023/05/06 02:23:43;;;;;;;;;8.25;7.50;;;;;8.30;82.73;98550.72;4966384;28;101925;-75
2023/05/06 02:26:10;;;;;;;;;6.50;5.50;;;;;8.41;82.47;98564.56;4966209;28;101622;-76
2023/05/06 02:28:37;;;;;;;;;5.00;4.00;;;;;8.44;82.07;98552.56;4965038;28;103276;-76
2023/05/06 02:31:04;;;;;;;;;9.00;9.00;;;;;8.41;83.37;98553.81;4963004;28;102096;-71
2023/05/06 02:33:31;;;;;;;;;9.75;9.00;;;;;8.30;83.12;98556.13;4963712;28;102140;-76
2023/05/06 02:35:58;;;;;;;;;7.75;7.50;;;;;8.36;82.83;98558.06;4970185;28;102005;-75
2023/05/06 02:38:25;;;;;;;;;5.00;4.50;;;;;8.42;82.24;98560.84;4964375;28;103305;-76
2023/05/06 02:40:52;;;;;;;;;4.25;4.00;;;;;8.41;82.78;98558.34;4962892;28;102021;-76
2023/05/06 02:43:19;;;;;;;;;4.75;4.00;;;;;8.36;81.68;98555.38;4960190;28;101783;-75
2023/05/06 02:45:46;;;;;;;;;8.25;4.00;;;;;8.31;82.38;98553.25;4963535;28;101838;-76
2023/05/06 02:48:13;;;;;;;;;6.00;6.00;;;;;8.26;83.90;98555.63;4963985;28;103499;-76
2023/05/06 02:50:40;;;;;;;;;7.50;6.50;;;;;8.26;83.27;98560.19;4966126;28;101478;-75
2023/05/06 02:53:09;;;;;;;;;7.75;4.75;;;;;8.23;84.24;98561.41;4963434;28;101465;-76
2023/05/06 02:55:36;;;;;;;;;5.25;4.50;;;;;8.24;83.47;98557.66;4970825;28;101791;-75
2023/05/06 02:58:03;;;;;;;;;2.00;2.00;;;;;8.25;83.05;98555.81;4971200;28;103345;-76
2023/05/06 03:00:30;;;;;;;;;3.50;3.25;;;;;8.26;82.88;98560.19;4962939;28;101565;-75
2023/05/06 03:02:57;;;;;;;;;2.00;1.00;;;;;8.25;82.49;98547.72;4965519;28;101923;-76
2023/05/06 03:05:24;;;;;;;;;2.00;2.00;;;;;8.20;83.71;98556.38;4958862;28;102071;-75
2023/05/06 03:07:51;;;;;;;;;2.00;1.75;;;;;8.20;84.28;98560.91;4954516;28;103476;-76
2023/05/06 03:10:18;;;;;;;;;3.00;2.00;;;;;8.21;83.03;98566.13;4962852;28;102132;-75
2023/05/06 03:12:45;;;;;;;;;0.75;0.75;;;;;8.18;85.21;98557.59;4965870;28;102021;-76
2023/05/06 03:15:12;;;;;;;;;1.00;1.00;;;;;8.18;83.68;98560.28;4965149;28;101859;-74
2023/05/06 03:17:39;;;;;;;;;3.00;1.50;;;;;8.10;84.76;98561.22;4967153;28;103360;-75
2023/05/06 03:20:07;;;;;;;;;3.00;2.00;;;;;8.07;84.46;98554.34;4954428;28;101821;-76
2023/05/06 03:22:34;;;;;;;;;1.00;1.00;;;;;8.09;85.29;98551.47;4968430;28;101846;-75
2023/05/06 03:25:01;;;;;;;;;4.25;3.00;;;;;8.06;84.98;98552.66;4969161;28;102021;-75
2023/05/06 03:27:28;;;;;;;;;1.25;1.25;;;;;8.06;84.24;98541.91;4959372;28;103409;-75
2023/05/06 03:29:55;;;;;;;;;3.00;2.00;;;;;8.11;84.29;98545.88;4968022;28;101772;-76
2023/05/06 03:32:22;;;;;;;;;1.75;1.00;;;;;8.14;84.77;98551.75;4967271;28;101923;-75
2023/05/06 03:34:49;;;;;;;;;2.25;2.25;;;;;8.18;84.32;98550.34;4968670;28;101961;-75
2023/05/06 03:37:17;;;;;;;;;2.25;1.25;;;;;8.19;85.09;98553.88;4960844;28;103504;-76
2023/05/06 03:39:44;;;;;;;;;2.00;1.00;;;;;8.18;85.00;98547.66;4962679;28;101855;-75
2023/05/06 03:42:11;;;;;;;;;2.00;1.00;;;;;8.24;84.45;98552.28;4966609;28;101738;-77
2023/05/06 03:44:38;;;;;;;;;2.00;2.00;;;;;8.30;84.47;98550.72;4970793;28;101867;-76
2023/05/06 03:47:05;;;;;;;;;1.00;1.00;;;;;8.35;84.31;98559.94;4968292;28;103524;-75
2023/05/06 03:49:32;;;;;;;;;0.50;0.50;;;;;8.42;84.05;98560.03;4968766;28;101962;-76
2023/05/06 03:51:59;;;;;;;;;1.75;1.75;;;;;8.45;84.59;98567.72;4972191;28;101575;-75
2023/05/06 03:54:26;;;;;;;;;2.00;1.00;;;;;8.49;83.15;98563.63;4968186;28;101854;-75
2023/05/06 03:56:53;;;;;;;;;1.00;1.00;;;;;8.53;84.27;98554.13;4964796;28;103408;-77
2023/05/06 03:59:20;;;;;;;;;2.00;2.00;;;;;8.57;83.53;98562.66;4958188;28;101683;-77
2023/05/06 04:01:47;;;;;;;;;2.50;2.25;;;;;8.62;82.47;98566.47;4968652;28;101831;-77
2023/05/06 04:04:14;;;;;;;;;1.00;1.00;;;;;8.72;83.70;98568.88;4967663;28;101887;-76
2023/05/06 04:06:41;;;;;;;;;2.00;1.75;;;;;8.77;83.04;98569.97;4966054;28;103795;-76
2023/05/06 04:09:08;;;;;;;;;1.25;0.50;;;;;8.85;82.50;98567.16;4963997;28;101628;-76
2023/05/06 04:11:35;;;;;;;;;2.00;2.00;;;;;8.90;82.40;98564.72;4974382;28;101647;-76
2023/05/06 04:14:02;;;;;;;;;2.25;2.25;;;;;8.93;81.56;98558.94;4955165;28;101795;-73
2023/05/06 04:16:29;;;;;;;;;3.25;2.00;;;;;9.00;80.96;98558.19;4965935;28;103373;-75
2023/05/06 04:18:56;;;;;;;;;2.00;2.00;;;;;9.02;81.24;98558.81;4955804;28;101607;-76
2023/05/06 04:21:23;;;;;;;;;5.50;5.00;;;;;8.99;81.40;98551.94;4967561;28;103054;-76
2023/05/06 04:23:50;;;;;;;;;5.00;4.00;;;;;9.07;80.94;98559.06;4974528;28;101586;-76
2023/05/06 04:26:17;;;;;;;;;4.00;4.00;;;;;9.10;81.40;98562.22;4973674;28;103328;-76
2023/05/06 04:28:44;;;;;;;;;4.00;3.00;;;;;9.16;82.11;98563.31;4975097;28;101770;-77
2023/05/06 04:31:13;;;;;;;;;3.00;2.00;;;;;9.23;80.62;98556.13;4967405;28;101589;-75
2023/05/06 04:33:40;;;;;;;;;5.00;4.50;;;;;9.09;81.32;98539.00;4977053;28;101601;-74
2023/05/06 04:36:08;;;;;;;;;3.00;3.00;;;;;9.31;81.13;98550.59;4969396;28;103613;-75
2023/05/06 04:38:36;;;;;;;;;3.00;3.00;;;;;9.41;80.15;98551.91;4975729;28;101333;-75
2023/05/06 04:41:04;;;;;;;;;7.00;5.00;;;;;9.39;79.54;98542.34;4979205;28;101556;-74
2023/05/06 04:43:31;;;;;;;;;8.25;5.25;;;;;9.46;79.14;98550.50;4982113;28;101950;-75
2023/05/06 04:45:58;;;;;;;;;4.25;3.25;;;;;9.51;79.34;98553.44;4979903;28;102966;-73
2023/05/06 04:48:25;;;;;;;;;9.25;9.00;;;;;9.43;79.19;98542.78;4980953;28;101521;-75
2023/05/06 04:50:53;;;;;;;;;6.75;5.25;;;;;9.47;81.54;98542.22;4961732;28;102885;-75
2023/05/06 04:53:20;;;;;;;;;9.00;7.00;;;;;9.53;80.59;98529.81;4982983;28;101582;-74
2023/05/06 04:55:47;;;;;;;;;4.25;4.25;;;;;9.61;78.91;98530.50;4981845;28;103022;-76
2023/05/06 04:58:14;;;;;;;;;5.75;5.00;;;;;9.76;79.92;98528.53;4970948;28;101370;-74
2023/05/06 05:00:41;;;;;;;;;1.25;1.25;;;;;9.86;78.87;98529.00;4979397;28;101552;-75
2023/05/06 05:03:07;;;;;;;;;3.75;2.00;;;;;10.00;79.48;98531.78;4978904;28;101792;-71
2023/05/06 05:05:35;;;;;;;;;3.00;3.00;;;;;10.11;78.01;98537.47;4980803;28;107695;-76
2023/05/06 05:08:02;;;;;;;;;2.25;2.00;;;;;10.07;78.62;98532.66;4977233;28;101899;-76
2023/05/06 05:10:29;;;;;;;;;2.00;2.00;;;;;10.26;77.79;98554.41;4972622;28;101691;-77
2023/05/06 05:12:56;;;;;;;;;2.00;2.00;;;;;10.39;77.25;98545.53;4975764;28;101619;-76
2023/05/06 05:15:23;;;;;;;;;3.25;2.75;;;;;10.52;76.57;98555.56;4968818;28;103504;-75
2023/05/06 05:17:50;;;;;;;;;2.00;2.00;;;;;10.63;75.45;98555.81;4968999;28;101681;-75
2023/05/06 05:20:17;;;;;;;;;2.00;2.00;;;;;10.69;74.70;98551.47;4948774;28;101914;-77
2023/05/06 05:22:44;;;;;;;;;5.00;3.00;;;;;10.79;75.80;98542.97;4964356;28;101805;-76
2023/05/06 05:25:11;;;;;;;;;3.50;3.50;;;;;10.96;75.84;98544.25;4963831;28;103376;-76
2023/05/06 05:27:41;;;;;;;;;3.00;3.00;;;;;11.06;73.31;98545.53;4966972;28;103189;-74
2023/05/06 05:30:08;;;;;;;;;2.00;2.00;;;;;11.16;74.08;98548.69;4967205;28;102038;-72
2023/05/06 05:32:35;;;;;;;;;10.75;9.25;;;;;10.83;74.06;98533.41;4963342;28;102210;-76
2023/05/06 05:35:02;;;;;;;;;8.50;8.50;;;;;10.98;75.12;98539.50;4960513;28;103285;-75
2023/05/06 05:37:30;;;;;;;;;8.00;6.00;;;;;11.14;74.62;98528.25;4968881;28;101861;-77
2023/05/06 05:39:57;;;;;;;;;4.00;4.00;;;;;11.33;72.42;98535.56;4964508;28;101882;-77
2023/05/06 05:42:24;;;;;;;;;10.75;10.00;;;;;11.01;75.30;98525.53;4969183;28;101921;-76
2023/05/06 05:44:51;;;;;;;;;9.25;7.75;;;;;11.70;73.78;98528.69;4967814;28;103665;-76
2023/05/06 05:47:18;;;;;;;;;8.75;6.00;;;;;12.32;69.25;98533.59;4970338;28;101916;-76
2023/05/06 05:49:45;;;;;;;;;5.25;4.75;;;;;12.67;69.62;98533.22;4967679;28;101742;-78
2023/05/06 05:52:12;;;;;;;;;4.75;4.75;;;;;12.80;67.33;98515.00;4970024;28;102141;-73
2023/05/06 05:54:39;;;;;;;;;4.00;4.00;;;;;12.94;65.80;98529.34;4960577;28;103398;-77
2023/05/06 05:57:06;;;;;;;;;5.25;3.75;;;;;12.98;67.63;98511.56;4963602;28;101720;-77
2023/05/06 05:59:33;;;;;;;;;6.00;5.00;;;;;12.81;65.93;98511.25;4969819;28;101537;-77
2023/05/06 06:02:00;;;;;;;;;4.00;4.00;;;;;12.88;67.22;98505.78;4968145;28;101914;-76
2023/05/06 06:04:27;;;;;;;;;9.25;8.50;;;;;12.35;67.56;98503.34;4967554;28;103503;-78
2023/05/06 06:07:00;;;;;;;;;8.00;7.75;;;;;12.25;68.73;98502.94;4957927;28;102067;-77
2023/05/06 06:09:27;;;;;;;;;6.50;5.75;;;;;12.57;67.44;98505.72;4967618;28;101773;-77
2023/05/06 06:11:54;;;;;;;;;6.50;5.25;;;;;12.71;69.77;98496.47;4967429;28;101948;-75
2023/05/06 06:14:21;;;;;;;;;5.00;5.00;;;;;12.87;68.57;98504.97;4968135;28;103567;-76
2023/05/06 06:16:48;;;;;;;;;11.00;10.50;;;;;13.13;66.69;98493.13;4963090;28;101535;-77
2023/05/06 06:19:15;;;;;;;;;5.25;5.25;;;;;13.35;66.15;98510.72;4969888;28;101838;-77
2023/05/06 06:21:42;;;;;;;;;5.50;4.75;;;;;13.55;64.40;98490.72;4951491;28;103163;-76
2023/05/06 06:24:09;;;;;;;;;7.75;7.25;;;;;13.40;67.15;98493.75;4958959;28;104474;-76
2023/05/06 06:26:36;;;;;;;;;7.00;7.00;;;;;13.61;66.41;98487.91;4957098;28;101787;-77
2023/05/06 06:29:03;;;;;;;;;7.00;7.00;;;;;13.68;64.00;98490.59;4965448;28;101898;-77
2023/05/06 06:31:32;;;;;;;;;6.00;5.25;;;;;13.75;64.83;98496.78;4968487;28;101838;-77
2023/05/06 06:33:59;;;;;;;;;8.00;7.75;;;;;13.74;65.58;98489.66;4965775;28;103614;-76
2023/05/06 06:36:26;;;;;;;;;6.25;6.25;;;;;13.83;64.93;98493.75;4963606;28;101670;-76
2023/05/06 06:38:53;;;;;;;;;6.00;5.50;;;;;14.05;64.64;98496.91;4959758;28;101936;-75
2023/05/06 06:41:20;;;;;;;;;4.25;4.25;;;;;14.35;64.00;98486.91;4968877;28;101747;-76
2023/05/06 06:43:47;;;;;;;;;6.25;5.75;;;;;14.46;63.24;98486.16;4965274;28;103326;-76
2023/05/06 06:46:14;;;;;;;;;5.00;5.00;;;;;14.58;60.29;98480.81;4968033;28;101799;-75
2023/05/06 06:48:41;;;;;;;;;4.50;4.50;;;;;14.77;61.79;98485.13;4960813;28;101597;-76
2023/05/06 06:51:08;;;;;;;;;4.25;4.25;;;;;14.71;61.81;98469.72;4967879;28;102764;-77
2023/05/06 06:53:35;;;;;;;;;4.50;4.00;;;;;14.79;62.90;98480.28;4965988;28;103368;-76
2023/05/06 06:56:02;;;;;;;;;4.00;4.00;;;;;14.89;61.19;98472.41;4971854;28;102894;-75
2023/05/06 06:58:32;;;;;;;;;4.00;4.00;;;;;14.83;58.53;98473.31;4961526;28;101676;-76
2023/05/06 07:00:59;;;;;;;;;3.00;3.00;;;;;14.80;58.21;98462.91;4970862;28;101890;-76
2023/05/06 07:03:26;;;;;;;;;6.00;5.00;;;;;14.67;60.91;98468.53;4970593;28;103553;-76
2023/05/06 07:05:52;;;;;;;;;7.25;6.00;;;;;14.64;61.38;98463.53;4964758;28;101570;-76
2023/05/06 07:08:21;;;;;;;;;4.00;4.00;;;;;14.76;59.74;98469.88;4968066;28;101840;-76
2023/05/06 07:10:48;;;;;;;;;5.00;4.00;;;;;14.95;59.21;98457.84;4971313;28;101523;-75
2023/05/06 07:13:15;;;;;;;;;6.00;5.25;;;;;15.01;59.56;98447.91;4972146;28;103373;-75
2023/05/06 07:15:42;;;;;;;;;4.75;4.75;;;;;15.09;60.02;98442.97;4967751;28;102529;-76
2023/05/06 07:18:09;;;;;;;;;8.75;8.75;;;;;14.72;60.32;98450.44;4967251;28;101547;-77
2023/05/06 07:20:36;;;;;;;;;9.00;7.00;;;;;14.84;59.98;98436.03;4971582;28;101680;-77
2023/05/06 07:23:03;;;;;;;;;6.75;5.50;;;;;14.83;60.73;98439.81;4968770;28;103597;-76
2023/05/06 07:25:31;;;;;;;;;7.00;7.00;;;;;14.77;60.71;98441.56;4969690;28;101799;-77
2023/05/06 07:27:58;;;;;;;;;6.50;6.00;;;;;14.67;62.42;98442.16;4969615;28;101832;-75
2023/05/06 07:30:25;;;;;;;;;4.25;4.25;;;;;14.83;60.02;98435.22;4972721;28;101746;-76
2023/05/06 07:32:52;;;;;;;;;2.50;2.50;;;;;15.13;60.51;98440.59;4971984;28;103633;-75
2023/05/06 07:35:19;;;;;;;;;4.75;3.75;;;;;15.25;58.90;98432.47;4970508;28;101898;-76
2023/05/06 07:37:46;;;;;;;;;5.75;5.25;;;;;15.12;59.52;98433.53;4971285;28;101875;-76
2023/05/06 07:40:13;;;;;;;;;4.00;3.50;;;;;15.27;59.71;98431.16;4968263;28;101517;-77
2023/05/06 07:42:40;;;;;;;;;3.25;3.25;;;;;15.31;59.18;98432.34;4971496;28;108036;-76
2023/05/06 07:45:09;;;;;;;;;3.00;3.00;;;;;15.41;60.02;98432.59;4965728;28;101557;-76
2023/05/06 07:47:36;;;;;;;;;3.75;3.75;;;;;15.45;59.85;98425.59;4969428;28;101707;-76
2023/05/06 07:50:05;;;;;;;;;2.00;2.00;;;;;15.44;58.84;98425.84;4970449;28;101807;-77
2023/05/06 07:52:32;;;;;;;;;4.00;3.00;;;;;15.54;58.95;98431.56;4968795;28;103381;-77
2023/05/06 07:54:59;;;;;;;;;3.00;3.00;;;;;15.48;57.95;98427.03;4969367;28;101616;-77
2023/05/06 07:57:26;;;;;;;;;4.00;4.00;;;;;15.56;60.11;98434.88;4965805;28;101742;-77
2023/05/06 07:59:53;;;;;;;;;3.25;3.25;;;;;15.42;58.60;98420.63;4970532;28;101964;-77
2023/05/06 08:02:20;;;;;;;;;4.00;3.00;;;;;15.45;59.99;98424.75;4969773;28;103300;-77
2023/05/06 08:04:48;;;;;;;;;4.00;4.00;;;;;15.40;58.60;98430.94;4970307;28;101843;-77
2023/05/06 08:07:17;;;;;;;;;5.00;4.00;;;;;15.33;59.01;98418.50;4965508;28;101469;-76
2023/05/06 08:09:45;;;;;;;;;5.50;4.25;;;;;15.45;60.92;98417.41;4972420;28;101872;-75
2023/05/06 08:12:12;;;;;;;;;3.00;2.00;;;;;15.45;59.30;98417.41;4967773;28;107856;-77
2023/05/06 08:14:39;;;;;;;;;2.75;2.50;;;;;15.48;59.30;98413.41;4965074;28;101885;-76
2023/05/06 08:17:06;;;;;;;;;3.00;3.00;;;;;15.49;59.82;98418.59;4968906;28;101455;-76
2023/05/06 08:19:33;;;;;;;;;2.00;2.00;;;;;15.42;59.56;98417.06;4968473;28;101933;-76
2023/05/06 08:22:00;;;;;;;;;5.00;4.00;;;;;15.30;60.48;98432.59;4959744;28;109269;-76
2023/05/06 08:24:27;;;;;;;;;5.00;4.00;;;;;15.18;59.48;98422.50;4966777;28;102127;-76
2023/05/06 08:26:54;;;;;;;;;5.00;4.00;;;;;15.10;60.38;98424.75;4969472;28;101989;-77
2023/05/06 08:29:21;;;;;;;;;5.00;4.00;;;;;15.05;60.58;98417.28;4968086;28;101857;-77
2023/05/06 08:31:48;;;;;;;;;6.25;5.50;;;;;15.04;60.63;98417.53;4959737;28;103200;-77
2023/05/06 08:34:17;;;;;;;;;4.25;3.25;;;;;15.02;62.60;98395.13;4968292;28;105802;-77
2023/05/06 08:36:44;;;;;;;;;5.25;5.25;;;;;14.99;63.32;98410.06;4970889;28;101610;-77
2023/05/06 08:39:13;;;;;;;;;5.25;5.25;;;;;15.05;62.45;98414.53;4972376;28;102495;-76
2023/05/06 08:41:46;;;;;;;;;8.00;8.00;;;;;15.03;60.96;98418.59;4961706;28;103401;-74
2023/05/06 08:44:17;;;;;;;;;5.25;4.50;;;;;15.27;61.95;98413.97;4968249;28;101601;-77
2023/05/06 08:46:45;;;;;;;;;5.25;5.00;;;;;15.47;62.05;98415.31;4969906;28;102285;-76
2023/05/06 08:49:13;;;;;;;;;3.00;3.00;;;;;15.64;61.79;98418.16;4971253;28;101786;-77
2023/05/06 08:51:45;;;;;;;;;3.25;2.50;;;;;15.79;60.86;98413.06;4970075;28;103487;-77
2023/05/06 08:54:12;;;;;;;;;2.25;2.25;;;;;15.63;60.80;98372.91;4970582;28;101626;-77
2023/05/06 08:56:44;;;;;;;;;5.00;4.75;;;;;15.76;59.70;98401.81;4969839;28;101979;-77
2023/05/06 08:59:12;;;;;;;;;3.75;3.00;;;;;15.92;60.31;98392.88;4968796;28;101572;-76
2023/05/06 09:01:39;;;;;;;;;4.25;4.00;;;;;16.07;59.71;98385.84;4967189;28;103449;-76
2023/05/06 09:04:07;;;;;;;;;6.75;6.00;;;;;16.15;59.77;98389.28;4969678;28;101971;-76
2023/05/06 09:06:34;;;;;;;;;11.00;10.50;;;;;16.01;60.59;98384.09;4969774;28;101754;-76
2023/05/06 09:09:01;;;;;;;;;9.00;9.00;;;;;15.87;61.10;98366.34;4970760;28;101622;-77
2023/05/06 09:11:29;;;;;;;;;11.25;10.25;;;;;16.10;60.31;98370.06;4965326;28;103388;-77
2023/05/06 09:14:25;;;;;;;;;7.50;7.50;;;;;16.37;59.43;98369.28;4966574;28;102036;-76
2023/05/06 09:16:52;;;;;;;;;6.00;6.00;;;;;16.76;59.37;98374.91;4942551;28;101788;-78
2023/05/06 09:19:21;;;;;;;;;6.25;6.00;;;;;16.94;59.97;98367.31;4969969;28;101670;-76
2023/05/06 09:21:50;;;;;;;;;4.25;4.25;;;;;17.31;58.19;98355.88;4968671;28;103389;-77
2023/05/06 09:24:17;;;;;;;;;2.25;2.25;;;;;17.41;55.52;98358.78;4966718;28;101919;-73
2023/05/06 09:26:45;;;;;;;;;8.00;6.25;;;;;17.16;56.63;98351.00;4964710;28;101600;-75
2023/05/06 09:29:12;;;;;;;;;6.75;6.75;;;;;17.14;58.90;98349.63;4971069;28;101744;-76
2023/05/06 09:31:41;;;;;;;;;5.00;5.00;;;;;17.39;57.37;98350.00;4969085;28;103484;-75
2023/05/06 09:34:09;;;;;;;;;5.75;5.75;;;;;16.95;58.74;98338.94;4966055;28;101567;-77
2023/05/06 09:36:36;;;;;;;;;5.25;5.00;;;;;16.89;59.68;98356.31;4967426;28;101860;-77
2023/05/06 09:39:04;;;;;;;;;5.00;5.00;;;;;16.82;62.14;98358.38;4969131;28;102027;-76
2023/05/06 09:41:32;;;;;;;;;6.00;6.00;;;;;16.36;60.96;98369.50;4968431;28;103388;-76
2023/05/06 09:43:59;;;;;;;;;6.00;6.00;;;;;16.39;64.17;98369.84;4966264;28;102005;-76
2023/05/06 09:46:29;;;;;;;;;5.75;5.75;;;;;16.02;69.63;98374.84;4964087;28;102036;-77
2023/05/06 09:48:57;;;;;;;;;7.00;6.00;;;;;15.65;72.97;98398.03;4964614;28;101475;-76
2023/05/06 09:51:27;;;;;;;;;9.00;9.00;;;;;15.26;71.07;98390.56;4966721;28;103624;-77
2023/05/06 09:53:56;;;;;;;;;7.33;6.67;;;;;15.11;76.73;98391.00;4969322;28;101977;-76
2023/05/06 09:56:24;;;;;;;;;6.25;6.00;;;;;15.13;74.80;98392.41;4967732;28;102004;-77
2023/05/06 09:58:54;;;;;;;;;7.00;6.50;;;;;15.10;75.46;98398.34;4967743;28;101739;-75
2023/05/06 10:01:21;;;;;;;;;7.00;7.00;;;;;14.97;78.78;98414.88;4969197;28;106143;-76
2023/05/06 10:04:06;;;;;;;;;6.00;6.00;;;;;14.83;77.66;98418.03;4968523;28;101678;-76
2023/05/06 10:06:35;;;;;;;;;5.25;5.00;;;;;14.62;78.73;98424.84;4967675;28;101796;-76
2023/05/06 10:09:05;;;;;;;;;6.50;6.50;;;;;14.50;80.13;98424.00;4963675;28;101696;-77
2023/05/06 10:11:32;;;;;;;;;4.50;3.00;;;;;14.34;82.50;98424.56;4968576;28;103554;-77
2023/05/06 10:14:00;;;;;;;;;5.25;5.25;;;;;14.10;83.67;98419.00;4966380;28;102110;-78
2023/05/06 10:16:28;;;;;;;;;6.00;5.00;;;;;13.89;83.45;98424.91;4967728;28;101667;-77
2023/05/06 10:18:57;;;;;;;;;6.33;6.33;;;;;13.79;85.24;98417.28;4963127;28;101658;-77
2023/05/06 10:21:28;;;;;;;;;4.75;4.50;;;;;13.74;86.66;98419.00;4968466;28;103402;-78
2023/05/06 10:24:12;;;;;;;;;7.00;6.00;;;;;13.64;86.52;98419.56;4970724;28;101813;-79
2023/05/06 10:26:41;;;;;;;;;9.00;8.00;;;;;13.55;87.77;98415.47;4967579;28;101536;-78
2023/05/06 10:29:09;;;;;;;;;5.75;5.25;;;;;13.43;89.10;98416.41;4969287;28;101918;-77
2023/05/06 10:31:54;;;;;;;;;6.50;5.75;;;;;13.36;89.68;98411.06;4961051;28;103635;-78
2023/05/06 10:34:23;;;;;;;;;5.75;5.00;;;;;13.25;90.55;98412.59;4965474;28;101782;-77
2023/05/06 10:36:56;;;;;;;;;11.75;8.00;;;;;12.88;94.98;98402.66;4965142;28;101984;-77
2023/05/06 10:39:24;;;;;;;;;8.75;8.75;;;;;12.76;98.61;98399.00;4964837;28;101871;-78
2023/05/06 10:41:52;;;;;;;;;13.75;12.75;;;;;12.71;98.45;98396.09;4964949;28;103357;-76
2023/05/06 10:44:57;;;;;;;;;22.00;21.00;;;;;12.66;100.00;98393.22;4964823;28;101618;-76
2023/05/06 10:47:24;;;;;;;;;18.75;17.75;;;;;12.77;99.11;98401.50;4961187;28;102017;-77
2023/05/06 10:50:23;;;;;;;;;13.75;13.50;;;;;12.85;97.04;98397.66;4968275;28;101869;-77
2023/05/06 10:52:55;;;;;;;;;13.00;12.00;;;;;12.79;98.77;98393.13;4955548;28;107815;-77
2023/05/06 10:55:28;;;;;;;;;7.75;6.00;;;;;12.82;96.69;98385.38;4962577;28;101451;-77
2023/05/06 10:57:59;;;;;;;;;12.75;11.00;;;;;12.76;96.85;98380.00;4961464;28;101718;-76
2023/05/06 11:00:30;;;;;;;;;13.00;9.25;;;;;12.59;98.56;98373.47;4958578;28;102061;-76
2023/05/06 11:03:00;;;;;;;;;8.75;8.00;;;;;12.71;97.58;98385.25;4967798;28;103214;-76
2023/05/06 11:05:28;;;;;;;;;12.25;10.50;;;;;12.70;98.06;98392.56;4965452;28;103123;-77
2023/05/06 11:08:20;;;;;;;;;8.00;6.75;;;;;12.73;98.05;98405.69;4968025;28;101753;-76
2023/05/06 11:10:47;;;;;;;;;6.00;6.00;;;;;12.70;96.75;98402.59;4966032;28;101656;-76
2023/05/06 11:13:26;;;;;;;;;8.00;8.00;;;;;12.45;97.57;98389.81;4963119;28;107574;-78
2023/05/06 11:15:55;;;;;;;;;10.50;8.75;;;;;12.43;97.74;98383.78;4966105;28;102062;-77
2023/05/06 11:18:26;;;;;;;;;20.00;18.50;;;;;12.24;100.00;98373.91;4967556;28;101862;-77
2023/05/06 11:21:02;;;;;;;;;11.50;10.50;;;;;12.20;100.00;98378.09;4968871;28;101552;-77
2023/05/06 11:23:41;;;;;;;;;13.75;11.50;;;;;12.24;100.00;98360.34;4969568;28;103346;-77
2023/05/06 11:26:10;;;;;;;;;11.75;10.25;;;;;12.24;100.00;98357.63;4965176;28;101875;-77
2023/05/06 11:28:37;;;;;;;;;7.00;7.00;;;;;12.36;100.00;98353.16;4954886;28;102572;-77
2023/05/06 11:31:05;;;;;;;;;7.00;6.50;;;;;12.47;100.00;98360.59;4966651;28;102014;-77
2023/05/06 11:33:34;;;;;;;;;7.00;6.00;;;;;12.49;100.00;98361.22;4971546;28;103635;-75
2023/05/06 11:36:03;;;;;;;;;16.50;15.50;;;;;12.37;100.00;98343.16;4970685;28;102054;-77
2023/05/06 11:38:44;;;;;;;;;16.75;14.75;;;;;12.19;100.00;98349.31;4956932;28;101822;-77
2023/05/06 11:41:11;;;;;;;;;15.00;13.75;;;;;12.16;100.00;98338.88;4977058;28;101924;-76
2023/05/06 11:43:39;;;;;;;;;15.25;14.00;;;;;12.11;100.00;98343.31;4980951;28;103065;-77
2023/05/06 11:46:06;;;;;;;;;16.25;15.00;;;;;12.02;100.00;98343.53;4979633;28;101758;-77